Time;durP1;ratioP1;P1;durP2;ratioP2;P2;SDS_P1;SDS_P2;PMS_P1;PMS_P2;Temp;Humidity;BMP_temperature;BMP_pressure;BME280_temperature;BME280_humidity;BME280_pressure;Samples;Min_cycle;Max_cycle;Signal;HPM_P1;HPM_P2
2022/07/26 00:01:01;;;;;;;7.82;1.48;;;;;;;;;;4994253;28;20034;-72
2022/07/26 00:03:27;;;;;;;5.15;1.40;;;;;;;;;;4995776;28;20050;-71
2022/07/26 00:05:53;;;;;;;5.13;1.65;;;;;;;;;;4995339;28;20026;-72
2022/07/26 00:08:19;;;;;;;4.32;1.20;;;;;;;;;;4995515;28;20097;-71
2022/07/26 00:10:47;;;;;;;5.18;1.75;;;;;;;;;;4995165;28;20041;-72
2022/07/26 00:13:16;;;;;;;6.13;1.88;;;;;;;;;;4995163;28;20417;-71
2022/07/26 00:15:42;;;;;;;5.53;1.65;;;;;;;;;;4995111;28;20110;-71
2022/07/26 00:18:08;;;;;;;8.48;1.83;;;;;;;;;;4994980;28;20033;-71
2022/07/26 00:20:35;;;;;;;8.10;2.00;;;;;;;;;;4995518;28;20022;-71
2022/07/26 00:23:01;;;;;;;6.25;2.00;;;;;;;;;;4994999;28;20029;-71
2022/07/26 00:25:27;;;;;;;8.88;2.13;;;;;;;;;;4994929;28;20076;-71
2022/07/26 00:27:53;;;;;;;3.78;1.65;;;;;;;;;;4994919;28;20030;-70
2022/07/26 00:30:20;;;;;;;4.70;1.60;;;;;;;;;;4995375;28;20109;-72
2022/07/26 00:32:46;;;;;;;5.47;1.85;;;;;;;;;;4994799;28;20026;-73
2022/07/26 00:35:12;;;;;;;5.18;1.80;;;;;;;;;;4994868;28;20459;-71
2022/07/26 00:37:39;;;;;;;3.78;1.63;;;;;;;;;;4994617;28;20027;-72
2022/07/26 00:40:05;;;;;;;5.47;2.00;;;;;;;;;;4977189;28;20382;-71
2022/07/26 00:42:32;;;;;;;6.93;1.67;;;;;;;;;;4994884;28;20073;-71
2022/07/26 00:44:58;;;;;;;8.23;1.77;;;;;;;;;;4995138;28;20057;-71
2022/07/26 00:47:24;;;;;;;6.78;2.00;;;;;;;;;;4994570;28;20022;-71
2022/07/26 00:49:50;;;;;;;5.20;2.22;;;;;;;;;;4994511;28;20037;-71
2022/07/26 00:52:16;;;;;;;4.38;1.70;;;;;;;;;;4994712;28;20027;-71
2022/07/26 00:54:44;;;;;;;5.60;1.88;;;;;;;;;;4994414;28;20100;-71
2022/07/26 00:57:10;;;;;;;3.13;1.65;;;;;;;;;;4994364;28;20027;-71
2022/07/26 00:59:37;;;;;;;7.32;1.92;;;;;;;;;;4994198;28;20037;-71
2022/07/26 01:02:04;;;;;;;4.78;1.50;;;;;;;;;;4995072;28;20072;-71
2022/07/26 01:04:30;;;;;;;6.13;1.77;;;;;;;;;;4993856;28;20085;-72
2022/07/26 01:06:56;;;;;;;4.75;1.67;;;;;;;;;;4994507;28;20026;-70
2022/07/26 01:09:22;;;;;;;3.92;1.50;;;;;;;;;;4994167;28;20026;-72
2022/07/26 01:11:48;;;;;;;6.63;1.95;;;;;;;;;;4993834;28;20022;-71
2022/07/26 01:14:15;;;;;;;5.75;1.60;;;;;;;;;;4994099;28;20030;-71
2022/07/26 01:16:42;;;;;;;4.85;1.60;;;;;;;;;;4994059;28;20022;-72
2022/07/26 01:19:08;;;;;;;6.78;1.60;;;;;;;;;;4993949;28;20022;-71
2022/07/26 01:21:34;;;;;;;5.28;1.80;;;;;;;;;;4994268;28;20026;-71
2022/07/26 01:24:01;;;;;;;2.60;1.60;;;;;;;;;;4994261;28;20049;-71
2022/07/26 01:26:27;;;;;;;4.78;1.75;;;;;;;;;;4993973;28;20018;-70
2022/07/26 01:28:53;;;;;;;4.93;2.10;;;;;;;;;;4993896;28;20026;-71
2022/07/26 01:31:19;;;;;;;5.47;1.73;;;;;;;;;;4994177;28;20054;-71
2022/07/26 01:33:45;;;;;;;5.93;1.70;;;;;;;;;;4993840;28;20563;-71
2022/07/26 01:36:11;;;;;;;5.43;1.50;;;;;;;;;;4994100;28;20061;-71
2022/07/26 01:38:38;;;;;;;3.42;1.60;;;;;;;;;;4993746;28;20493;-70
2022/07/26 01:41:04;;;;;;;5.40;1.95;;;;;;;;;;4993736;28;20033;-71
2022/07/26 01:43:30;;;;;;;4.00;1.70;;;;;;;;;;4993754;28;20026;-71
2022/07/26 01:45:56;;;;;;;4.30;1.50;;;;;;;;;;4976318;28;20030;-71
2022/07/26 01:48:22;;;;;;;3.67;1.77;;;;;;;;;;4993711;28;20034;-71
2022/07/26 01:50:48;;;;;;;5.68;1.88;;;;;;;;;;4994182;28;20037;-71
2022/07/26 01:53:14;;;;;;;3.47;1.65;;;;;;;;;;4993686;28;20116;-71
2022/07/26 01:55:40;;;;;;;5.20;1.73;;;;;;;;;;4993620;28;20511;-72
2022/07/26 01:58:06;;;;;;;4.05;2.00;;;;;;;;;;4993550;28;20066;-72
2022/07/26 02:00:32;;;;;;;3.70;2.08;;;;;;;;;;4993820;28;20069;-71
2022/07/26 02:02:59;;;;;;;4.10;1.77;;;;;;;;;;4993899;28;20050;-72
2022/07/26 02:05:25;;;;;;;4.28;1.75;;;;;;;;;;4994158;28;20027;-70
2022/07/26 02:07:51;;;;;;;6.63;1.65;;;;;;;;;;4993539;28;20030;-72
2022/07/26 02:13:19;;;;;;;4.65;1.50;;;;;;;;;;4993855;28;20588;-72
2022/07/26 02:15:45;;;;;;;3.47;1.70;;;;;;;;;;4993479;28;20480;-71
2022/07/26 02:18:11;;;;;;;5.75;1.65;;;;;;;;;;4993396;28;20038;-72
2022/07/26 02:20:37;;;;;;;5.10;1.70;;;;;;;;;;4993725;28;20027;-72
2022/07/26 02:23:04;;;;;;;4.93;1.55;;;;;;;;;;4993634;28;20489;-71
2022/07/26 02:25:30;;;;;;;4.65;1.67;;;;;;;;;;4997768;28;20030;-72
2022/07/26 02:27:56;;;;;;;6.05;2.05;;;;;;;;;;4997144;28;20026;-72
2022/07/26 02:30:22;;;;;;;6.15;1.70;;;;;;;;;;4997103;28;20472;-71
2022/07/26 02:32:49;;;;;;;2.90;1.23;;;;;;;;;;4997045;28;20069;-71
2022/07/26 02:35:15;;;;;;;2.83;1.60;;;;;;;;;;4997015;28;20053;-71
2022/07/26 02:37:41;;;;;;;5.82;1.73;;;;;;;;;;4996885;28;20026;-71
2022/07/26 02:40:08;;;;;;;4.28;1.80;;;;;;;;;;4979444;28;20377;-72
2022/07/26 02:42:34;;;;;;;4.85;1.60;;;;;;;;;;4997389;28;20028;-71
2022/07/26 02:45:00;;;;;;;5.25;1.92;;;;;;;;;;4997104;28;20432;-72
2022/07/26 02:47:26;;;;;;;5.78;1.80;;;;;;;;;;4996777;28;20025;-72
2022/07/26 02:49:52;;;;;;;4.15;1.70;;;;;;;;;;4996718;28;20030;-72
2022/07/26 02:52:19;;;;;;;4.63;1.67;;;;;;;;;;4979186;28;20030;-71
2022/07/26 02:54:45;;;;;;;3.00;1.75;;;;;;;;;;4996639;28;20023;-71
2022/07/26 02:57:13;;;;;;;3.92;1.40;;;;;;;;;;4996873;28;20026;-72
2022/07/26 02:59:39;;;;;;;4.65;1.70;;;;;;;;;;4996436;28;20033;-71
2022/07/26 03:02:06;;;;;;;3.33;1.52;;;;;;;;;;4997021;28;20500;-71
2022/07/26 03:04:32;;;;;;;6.32;2.00;;;;;;;;;;4996128;28;20045;-72
2022/07/26 03:06:58;;;;;;;4.47;1.80;;;;;;;;;;4996404;28;20611;-71
2022/07/26 03:09:24;;;;;;;3.92;1.67;;;;;;;;;;4996342;28;20061;-72
2022/07/26 03:11:50;;;;;;;3.92;1.60;;;;;;;;;;4996303;28;20038;-72
2022/07/26 03:14:16;;;;;;;4.03;1.75;;;;;;;;;;4996287;28;20101;-72
2022/07/26 03:16:42;;;;;;;3.28;1.67;;;;;;;;;;4996252;28;20588;-72
2022/07/26 03:19:08;;;;;;;4.03;1.70;;;;;;;;;;4996105;28;20035;-71
2022/07/26 03:21:34;;;;;;;4.05;1.65;;;;;;;;;;4996447;28;20061;-71
2022/07/26 03:24:00;;;;;;;4.22;1.63;;;;;;;;;;4996113;28;20515;-71
2022/07/26 03:26:28;;;;;;;2.40;1.58;;;;;;;;;;4996326;28;20022;-71
2022/07/26 03:28:54;;;;;;;5.35;1.70;;;;;;;;;;4995998;28;20030;-71
2022/07/26 03:31:22;;;;;;;3.97;1.67;;;;;;;;;;4996038;28;20412;-71
2022/07/26 03:33:48;;;;;;;5.07;1.60;;;;;;;;;;4995862;28;20029;-71
2022/07/26 03:36:14;;;;;;;3.20;1.45;;;;;;;;;;4995693;28;20026;-70
2022/07/26 03:38:40;;;;;;;3.42;1.50;;;;;;;;;;4996034;28;20045;-71
2022/07/26 03:41:06;;;;;;;2.83;1.55;;;;;;;;;;4996296;28;20057;-71
2022/07/26 03:43:32;;;;;;;1.95;1.52;;;;;;;;;;4995989;28;20034;-71
2022/07/26 03:45:58;;;;;;;3.53;1.63;;;;;;;;;;4995950;28;20412;-72
2022/07/26 03:48:24;;;;;;;2.75;1.70;;;;;;;;;;4978195;28;20481;-71
2022/07/26 03:50:50;;;;;;;2.97;1.50;;;;;;;;;;4995862;28;20030;-71
2022/07/26 03:53:16;;;;;;;2.55;1.40;;;;;;;;;;4995553;28;20109;-72
2022/07/26 03:58:26;;;;;;;7.03;1.83;;;;;;;;;;4995177;28;20041;-71
2022/07/26 04:00:52;;;;;;;4.30;1.50;;;;;;;;;;4995611;28;20380;-71
2022/07/26 04:03:19;;;;;;;3.38;1.63;;;;;;;;;;4978201;28;20050;-71
2022/07/26 04:05:45;;;;;;;5.88;2.10;;;;;;;;;;4995374;28;20026;-72
2022/07/26 04:08:11;;;;;;;9.10;2.10;;;;;;;;;;4995245;28;20105;-72
2022/07/26 04:10:37;;;;;;;3.00;1.75;;;;;;;;;;4995477;28;20053;-72
2022/07/26 04:13:03;;;;;;;6.03;1.80;;;;;;;;;;4995503;28;20081;-71
2022/07/26 04:15:29;;;;;;;5.50;1.50;;;;;;;;;;4977648;28;20026;-71
2022/07/26 04:17:55;;;;;;;3.65;1.58;;;;;;;;;;4977607;28;20034;-72
2022/07/26 04:20:21;;;;;;;5.55;1.77;;;;;;;;;;4995093;28;20022;-72
2022/07/26 04:22:47;;;;;;;1.73;1.40;;;;;;;;;;4995273;28;20023;-71
2022/07/26 04:25:14;;;;;;;4.72;1.55;;;;;;;;;;4994993;28;20228;-72
2022/07/26 04:27:40;;;;;;;3.83;1.67;;;;;;;;;;4994944;28;20077;-70
2022/07/26 04:30:06;;;;;;;2.50;1.27;;;;;;;;;;4994868;28;20420;-71
2022/07/26 04:32:32;;;;;;;3.50;1.63;;;;;;;;;;4995442;28;20026;-71
2022/07/26 04:34:58;;;;;;;4.38;1.65;;;;;;;;;;4995300;28;20148;-71
2022/07/26 04:37:24;;;;;;;4.90;1.70;;;;;;;;;;4994753;28;20057;-71
2022/07/26 04:39:50;;;;;;;3.72;1.55;;;;;;;;;;4994576;28;20080;-71
2022/07/26 04:42:16;;;;;;;6.75;1.58;;;;;;;;;;4994916;28;20030;-71
2022/07/26 04:44:42;;;;;;;5.43;1.77;;;;;;;;;;4994629;28;20504;-70
2022/07/26 04:47:08;;;;;;;4.70;1.70;;;;;;;;;;4993965;28;20026;-71
2022/07/26 04:49:34;;;;;;;4.00;1.50;;;;;;;;;;4994812;28;20034;-72
2022/07/26 04:52:00;;;;;;;5.80;1.80;;;;;;;;;;4994548;28;20029;-71
2022/07/26 04:54:26;;;;;;;3.67;1.65;;;;;;;;;;4994447;28;20504;-71
2022/07/26 04:56:52;;;;;;;5.72;1.92;;;;;;;;;;4994408;28;20425;-71
2022/07/26 04:59:18;;;;;;;6.60;1.48;;;;;;;;;;4994279;28;20057;-71
2022/07/26 05:01:44;;;;;;;5.25;1.90;;;;;;;;;;4994459;28;20023;-72
2022/07/26 05:04:10;;;;;;;4.65;1.75;;;;;;;;;;4994565;28;20042;-71
2022/07/26 05:06:36;;;;;;;3.80;1.45;;;;;;;;;;4994251;28;20022;-71
2022/07/26 05:09:03;;;;;;;4.25;1.52;;;;;;;;;;4994185;28;20037;-72
2022/07/26 05:11:29;;;;;;;4.60;1.42;;;;;;;;;;4994152;28;20054;-70
2022/07/26 05:13:55;;;;;;;2.75;1.63;;;;;;;;;;4994079;28;20492;-71
2022/07/26 05:16:21;;;;;;;3.67;1.50;;;;;;;;;;4994608;28;20041;-72
2022/07/26 05:18:47;;;;;;;3.42;1.55;;;;;;;;;;4993951;28;20033;-72
2022/07/26 05:21:13;;;;;;;3.72;1.75;;;;;;;;;;4976571;28;20030;-71
2022/07/26 05:23:39;;;;;;;3.97;1.45;;;;;;;;;;4994241;28;20149;-72
2022/07/26 05:26:05;;;;;;;6.78;1.83;;;;;;;;;;4993971;28;20058;-72
2022/07/26 05:28:31;;;;;;;4.28;1.35;;;;;;;;;;4993908;28;20036;-72
2022/07/26 05:30:57;;;;;;;6.20;1.83;;;;;;;;;;4993905;28;20030;-71
2022/07/26 05:33:23;;;;;;;6.05;1.60;;;;;;;;;;4994135;28;20033;-72
2022/07/26 05:35:49;;;;;;;5.40;1.60;;;;;;;;;;4994110;28;20400;-71
2022/07/26 05:38:15;;;;;;;5.93;1.60;;;;;;;;;;4993759;28;20105;-72
2022/07/26 05:40:41;;;;;;;2.35;1.90;;;;;;;;;;4993823;28;20060;-72
2022/07/26 05:43:07;;;;;;;3.53;1.60;;;;;;;;;;4993793;28;20023;-72
2022/07/26 05:45:33;;;;;;;3.08;1.67;;;;;;;;;;4976366;28;20463;-71
2022/07/26 05:47:59;;;;;;;2.97;1.60;;;;;;;;;;4993741;28;20057;-71
2022/07/26 05:50:25;;;;;;;2.95;1.40;;;;;;;;;;4993670;28;20037;-71
2022/07/26 05:52:51;;;;;;;4.35;1.25;;;;;;;;;;4993941;28;20160;-71
2022/07/26 05:55:17;;;;;;;4.20;1.65;;;;;;;;;;4993644;28;20496;-71
2022/07/26 05:57:46;;;;;;;4.47;1.50;;;;;;;;;;4994861;28;20029;-72
2022/07/26 06:00:12;;;;;;;2.20;1.20;;;;;;;;;;4997580;28;20069;-71
2022/07/26 06:02:39;;;;;;;6.03;1.70;;;;;;;;;;4997883;28;20398;-71
2022/07/26 06:05:05;;;;;;;3.40;1.35;;;;;;;;;;4997670;28;20022;-71
2022/07/26 06:07:31;;;;;;;3.75;1.50;;;;;;;;;;4998097;28;20030;-71
2022/07/26 06:09:57;;;;;;;3.47;1.58;;;;;;;;;;4998025;28;20018;-71
2022/07/26 06:12:23;;;;;;;6.25;1.50;;;;;;;;;;4997452;28;20037;-70
2022/07/26 06:14:49;;;;;;;3.50;2.03;;;;;;;;;;4997708;28;20054;-72
2022/07/26 06:17:15;;;;;;;4.55;1.58;;;;;;;;;;4997660;28;20058;-72
2022/07/26 06:19:42;;;;;;;5.18;1.65;;;;;;;;;;4997560;28;20066;-71
2022/07/26 06:22:08;;;;;;;4.25;1.88;;;;;;;;;;4997227;28;20027;-72
2022/07/26 06:24:34;;;;;;;5.72;1.58;;;;;;;;;;4997571;28;20109;-71
2022/07/26 06:27:00;;;;;;;3.95;1.45;;;;;;;;;;4997726;28;20026;-71
2022/07/26 06:29:26;;;;;;;4.63;1.98;;;;;;;;;;4997192;28;20023;-72
2022/07/26 06:31:52;;;;;;;3.30;1.70;;;;;;;;;;4997416;28;20109;-71
2022/07/26 06:34:18;;;;;;;6.65;2.15;;;;;;;;;;4997353;28;20061;-71
2022/07/26 06:36:45;;;;;;;4.90;2.10;;;;;;;;;;4997560;28;20046;-72
2022/07/26 06:39:11;;;;;;;5.53;1.67;;;;;;;;;;4997137;28;20030;-72
2022/07/26 06:41:37;;;;;;;6.88;2.05;;;;;;;;;;4997409;28;20042;-71
2022/07/26 06:44:03;;;;;;;4.97;1.77;;;;;;;;;;4997124;28;20022;-71
2022/07/26 06:46:29;;;;;;;5.13;1.65;;;;;;;;;;4996823;28;20396;-70
2022/07/26 06:48:55;;;;;;;3.83;1.63;;;;;;;;;;4996779;28;20026;-72
2022/07/26 06:51:22;;;;;;;3.97;1.23;;;;;;;;;;4997001;28;20030;-71
2022/07/26 06:53:49;;;;;;;5.55;1.67;;;;;;;;;;4996692;28;20018;-71
2022/07/26 06:56:16;;;;;;;6.22;1.95;;;;;;;;;;4996673;28;20407;-72
2022/07/26 06:58:42;;;;;;;5.47;1.55;;;;;;;;;;4996792;28;20027;-72
2022/07/26 07:01:08;;;;;;;5.25;1.70;;;;;;;;;;4996489;28;20053;-72
2022/07/26 07:03:34;;;;;;;3.10;1.45;;;;;;;;;;4996847;28;20057;-70
2022/07/26 07:06:00;;;;;;;4.28;1.58;;;;;;;;;;4980342;28;20453;-78
2022/07/26 07:08:26;;;;;;;3.70;1.70;;;;;;;;;;4976930;28;20034;-79
2022/07/26 07:10:54;;;;;;;5.28;1.70;;;;;;;;;;4976854;28;20121;-78
2022/07/26 07:13:20;;;;;;;5.63;1.75;;;;;;;;;;4962536;28;20023;-76
2022/07/26 07:15:46;;;;;;;6.53;1.65;;;;;;;;;;4976843;28;20404;-77
2022/07/26 07:18:12;;;;;;;4.45;1.67;;;;;;;;;;4976449;28;20605;-74
2022/07/26 07:20:39;;;;;;;5.47;1.42;;;;;;;;;;4977115;28;20505;-77
2022/07/26 07:23:05;;;;;;;3.08;1.30;;;;;;;;;;4959341;28;20030;-74
2022/07/26 07:25:31;;;;;;;3.55;1.38;;;;;;;;;;4978381;28;20127;-74
2022/07/26 07:27:58;;;;;;;3.90;1.60;;;;;;;;;;4977158;28;20074;-76
2022/07/26 07:30:24;;;;;;;4.72;1.42;;;;;;;;;;4977111;28;20030;-72
2022/07/26 07:32:50;;;;;;;4.20;1.30;;;;;;;;;;4976897;28;20385;-75
2022/07/26 07:35:16;;;;;;;3.05;1.50;;;;;;;;;;4988617;28;20034;-74
2022/07/26 07:37:42;;;;;;;5.57;1.65;;;;;;;;;;4995937;28;20495;-71
2022/07/26 07:40:08;;;;;;;5.15;1.20;;;;;;;;;;4990573;28;20030;-72
2022/07/26 07:42:35;;;;;;;3.58;1.13;;;;;;;;;;5005501;28;20113;-78
2022/07/26 07:45:01;;;;;;;6.40;1.67;;;;;;;;;;4973689;28;20027;-85
2022/07/26 07:47:27;;;;;;;4.30;1.27;;;;;;;;;;4959296;28;20019;-79
2022/07/26 07:49:53;;;;;;;2.88;1.38;;;;;;;;;;4977058;28;20023;-76
2022/07/26 07:52:19;;;;;;;3.17;1.20;;;;;;;;;;4977617;28;20030;-77
2022/07/26 07:54:46;;;;;;;5.18;1.27;;;;;;;;;;4976167;28;20031;-75
2022/07/26 07:57:12;;;;;;;3.22;1.10;;;;;;;;;;4976184;28;20093;-71
2022/07/26 07:59:38;;;;;;;1.88;1.00;;;;;;;;;;4975959;28;20062;-76
2022/07/26 08:02:05;;;;;;;4.05;1.25;;;;;;;;;;4976402;28;20445;-73
2022/07/26 08:04:31;;;;;;;3.47;1.10;;;;;;;;;;4976056;28;20065;-68
2022/07/26 08:06:57;;;;;;;2.10;1.20;;;;;;;;;;4975903;28;20025;-72
2022/07/26 08:09:23;;;;;;;3.70;1.25;;;;;;;;;;4975810;28;20039;-75
2022/07/26 08:11:49;;;;;;;3.60;1.17;;;;;;;;;;4978624;28;20408;-73
2022/07/26 08:14:15;;;;;;;3.35;1.10;;;;;;;;;;4994952;28;20041;-74
2022/07/26 08:16:43;;;;;;;2.53;1.20;;;;;;;;;;4994870;28;20034;-71
2022/07/26 08:19:09;;;;;;;9.93;1.55;;;;;;;;;;4975150;28;20096;-72
2022/07/26 08:21:35;;;;;;;1.73;1.25;;;;;;;;;;4990559;28;20026;-70
2022/07/26 08:24:01;;;;;;;2.38;1.10;;;;;;;;;;4994978;28;20028;-80
2022/07/26 08:26:27;;;;;;;3.10;1.10;;;;;;;;;;4977511;28;20396;-73
2022/07/26 08:28:53;;;;;;;3.38;1.00;;;;;;;;;;4994962;28;20031;-74
2022/07/26 08:31:19;;;;;;;2.25;1.30;;;;;;;;;;4978937;28;20101;-74
2022/07/26 08:33:46;;;;;;;2.40;0.95;;;;;;;;;;4975443;28;20110;-73
2022/07/26 08:36:12;;;;;;;3.35;0.73;;;;;;;;;;4958455;28;20023;-70
2022/07/26 08:38:38;;;;;;;4.28;1.23;;;;;;;;;;4975472;28;20034;-70
2022/07/26 08:41:04;;;;;;;2.50;0.80;;;;;;;;;;4975393;28;20031;-72
2022/07/26 08:43:30;;;;;;;4.53;0.90;;;;;;;;;;4978120;28;20031;-71
2022/07/26 08:46:01;;;;;;;1.83;0.82;;;;;;;;;;4975607;28;20027;-72
2022/07/26 08:48:27;;;;;;;2.03;0.68;;;;;;;;;;4975118;28;20055;-72
2022/07/26 08:50:54;;;;;;;2.58;1.05;;;;;;;;;;4978624;28;20485;-77
2022/07/26 08:53:20;;;;;;;1.05;0.73;;;;;;;;;;4992394;28;20036;-78
2022/07/26 08:55:46;;;;;;;1.85;0.95;;;;;;;;;;4994631;28;20108;-84
2022/07/26 08:58:12;;;;;;;1.77;0.82;;;;;;;;;;4971160;28;20043;-78
2022/07/26 09:00:42;;;;;;;1.77;0.75;;;;;;;;;;4973117;28;20110;-75
2022/07/26 09:03:23;;;;;;;1.17;0.80;;;;;;;;;;4975099;28;20048;-71
2022/07/26 09:05:49;;;;;;;5.05;0.90;;;;;;;;;;4978703;28;20389;-71
2022/07/26 09:08:23;;;;;;;15.25;1.25;;;;;;;;;;4991099;28;20065;-73
2022/07/26 09:10:49;;;;;;;0.73;0.60;;;;;;;;;;4959675;28;20037;-72
2022/07/26 09:13:15;;;;;;;3.20;0.90;;;;;;;;;;5005403;28;20468;-72
2022/07/26 09:15:41;;;;;;;2.30;0.70;;;;;;;;;;5014201;28;20026;-72
2022/07/26 09:18:24;;;;;;;3.90;1.00;;;;;;;;;;5013485;28;20036;-71
2022/07/26 09:20:50;;;;;;;1.92;0.75;;;;;;;;;;5013608;28;20060;-71
2022/07/26 09:23:16;;;;;;;1.83;0.80;;;;;;;;;;5014113;28;20022;-71
2022/07/26 09:25:43;;;;;;;3.38;0.80;;;;;;;;;;5006858;28;20031;-70
2022/07/26 09:28:21;;;;;;;2.47;1.13;;;;;;;;;;4987565;28;20030;-71
2022/07/26 09:30:54;;;;;;;2.05;0.80;;;;;;;;;;4992524;28;20041;-73
2022/07/26 09:33:20;;;;;;;1.42;0.70;;;;;;;;;;4993602;28;20393;-73
2022/07/26 09:35:59;;;;;;;2.05;1.10;;;;;;;;;;4978235;28;20038;-74
2022/07/26 09:38:25;;;;;;;2.33;0.90;;;;;;;;;;4956505;28;20095;-80
2022/07/26 09:40:54;;;;;;;2.03;0.90;;;;;;;;;;4956463;28;20067;-76
2022/07/26 09:43:20;;;;;;;1.65;0.90;;;;;;;;;;4974332;28;20113;-73
2022/07/26 09:46:01;;;;;;;2.35;0.65;;;;;;;;;;4985857;28;20393;-72
2022/07/26 09:48:28;;;;;;;1.83;0.70;;;;;;;;;;4976088;28;20030;-70
2022/07/26 09:50:54;;;;;;;1.30;0.70;;;;;;;;;;4993800;28;20030;-79
2022/07/26 09:53:21;;;;;;;1.33;0.70;;;;;;;;;;4994026;28;20027;-75
2022/07/26 09:55:47;;;;;;;1.55;0.90;;;;;;;;;;4984633;28;20035;-80
2022/07/26 09:58:14;;;;;;;4.60;0.80;;;;;;;;;;4974348;28;20031;-80
2022/07/26 10:00:41;;;;;;;1.42;1.08;;;;;;;;;;4977549;28;20392;-74
2022/07/26 10:03:07;;;;;;;1.00;0.90;;;;;;;;;;4976409;28;20051;-73
2022/07/26 10:05:33;;;;;;;2.65;0.82;;;;;;;;;;4989254;28;20437;-76
2022/07/26 10:07:59;;;;;;;2.17;0.98;;;;;;;;;;4991974;28;20436;-72
2022/07/26 10:10:28;;;;;;;2.63;0.90;;;;;;;;;;4993661;28;20030;-72
2022/07/26 10:12:54;;;;;;;2.28;0.82;;;;;;;;;;4986830;28;20034;-71
2022/07/26 10:15:36;;;;;;;2.17;0.65;;;;;;;;;;4979547;28;20055;-72
2022/07/26 10:18:02;;;;;;;4.63;1.10;;;;;;;;;;5013237;28;20030;-71
2022/07/26 10:20:39;;;;;;;1.55;1.00;;;;;;;;;;5013297;28;20045;-72
2022/07/26 10:23:25;;;;;;;0.70;0.70;;;;;;;;;;5013664;28;20032;-71
2022/07/26 10:25:52;;;;;;;1.45;0.80;;;;;;;;;;4995321;28;20373;-72
2022/07/26 10:28:28;;;;;;;3.72;1.23;;;;;;;;;;5013410;28;20075;-72
2022/07/26 10:31:14;;;;;;;3.95;0.75;;;;;;;;;;5013330;28;20022;-72
2022/07/26 10:33:43;;;;;;;3.42;0.90;;;;;;;;;;4996670;28;20042;-72
2022/07/26 10:36:41;;;;;;;2.13;0.73;;;;;;;;;;5013256;28;20097;-72
2022/07/26 10:39:10;;;;;;;2.28;0.70;;;;;;;;;;4942949;28;20125;-71
2022/07/26 10:41:37;;;;;;;3.22;1.00;;;;;;;;;;5012865;28;20080;-71
2022/07/26 10:44:17;;;;;;;2.00;0.70;;;;;;;;;;5013658;28;20025;-71
2022/07/26 10:46:58;;;;;;;3.97;1.02;;;;;;;;;;5016484;28;20037;-71
2022/07/26 10:49:33;;;;;;;2.75;1.13;;;;;;;;;;5016646;28;20076;-72
2022/07/26 10:52:06;;;;;;;2.85;0.93;;;;;;;;;;5015420;28;20026;-71
2022/07/26 10:54:52;;;;;;;1.65;0.68;;;;;;;;;;5015316;28;20077;-71
2022/07/26 10:57:18;;;;;;;2.05;0.90;;;;;;;;;;5015666;28;20388;-72
2022/07/26 10:59:44;;;;;;;1.98;0.90;;;;;;;;;;5015692;28;20026;-71
2022/07/26 11:02:17;;;;;;;2.25;0.88;;;;;;;;;;5016004;28;20026;-72
2022/07/26 11:04:43;;;;;;;1.50;0.70;;;;;;;;;;5016047;28;20107;-72
2022/07/26 11:07:09;;;;;;;2.55;0.80;;;;;;;;;;5016343;28;20421;-72
2022/07/26 11:09:35;;;;;;;3.47;1.02;;;;;;;;;;5016016;28;20025;-73
2022/07/26 11:12:20;;;;;;;2.35;0.70;;;;;;;;;;4998380;28;20176;-72
2022/07/26 11:14:46;;;;;;;2.38;0.90;;;;;;;;;;5016482;28;20520;-72
2022/07/26 11:17:25;;;;;;;3.08;0.85;;;;;;;;;;5015922;28;20030;-71
2022/07/26 11:19:51;;;;;;;1.85;0.75;;;;;;;;;;5016332;28;20034;-72
2022/07/26 11:22:17;;;;;;;2.00;0.70;;;;;;;;;;5016314;28;20022;-72
2022/07/26 11:24:43;;;;;;;2.20;0.63;;;;;;;;;;5016311;28;20022;-71
2022/07/26 11:27:09;;;;;;;4.32;0.90;;;;;;;;;;5015709;28;20094;-72
2022/07/26 11:29:36;;;;;;;2.53;0.80;;;;;;;;;;5015688;28;20029;-72
2022/07/26 11:32:03;;;;;;;2.58;0.77;;;;;;;;;;5015664;28;20105;-71
2022/07/26 11:34:32;;;;;;;2.10;0.90;;;;;;;;;;5016112;28;20034;-71
2022/07/26 11:36:59;;;;;;;3.45;1.20;;;;;;;;;;5015540;28;20022;-72
2022/07/26 11:39:29;;;;;;;2.97;0.90;;;;;;;;;;5015440;28;20104;-72
2022/07/26 11:42:00;;;;;;;1.65;0.65;;;;;;;;;;5015758;28;20022;-71
2022/07/26 11:44:26;;;;;;;1.33;0.68;;;;;;;;;;5015670;28;20101;-72
2022/07/26 11:46:52;;;;;;;3.63;0.93;;;;;;;;;;5015343;28;20093;-71
2022/07/26 11:49:20;;;;;;;1.98;0.98;;;;;;;;;;4997683;28;20380;-72
2022/07/26 11:51:49;;;;;;;3.10;1.08;;;;;;;;;;5015251;28;20542;-71
2022/07/26 11:54:15;;;;;;;4.18;0.88;;;;;;;;;;5015218;28;20034;-71
2022/07/26 11:56:48;;;;;;;1.85;0.80;;;;;;;;;;5015082;28;20029;-72
2022/07/26 11:59:14;;;;;;;1.30;0.65;;;;;;;;;;5015340;28;20033;-72
2022/07/26 12:01:40;;;;;;;9.65;1.08;;;;;;;;;;5015018;28;20373;-72
2022/07/26 12:04:17;;;;;;;1.60;0.57;;;;;;;;;;5015308;28;20042;-72
2022/07/26 12:06:43;;;;;;;1.70;0.70;;;;;;;;;;4997203;28;20022;-72
2022/07/26 12:09:09;;;;;;;1.40;0.90;;;;;;;;;;4997350;28;20030;-72
2022/07/26 12:11:40;;;;;;;1.45;0.63;;;;;;;;;;5015162;28;20029;-71
2022/07/26 12:14:06;;;;;;;2.70;0.70;;;;;;;;;;4997203;28;20099;-71
2022/07/26 12:16:42;;;;;;;1.67;0.60;;;;;;;;;;5015092;28;20036;-71
2022/07/26 12:19:09;;;;;;;3.70;0.98;;;;;;;;;;5014949;28;20058;-72
2022/07/26 12:21:46;;;;;;;2.22;0.95;;;;;;;;;;5014657;28;20026;-71
2022/07/26 12:24:13;;;;;;;3.08;0.80;;;;;;;;;;5014648;28;20104;-72
2022/07/26 12:26:39;;;;;;;0.73;0.65;;;;;;;;;;5014876;28;20029;-72
2022/07/26 12:29:24;;;;;;;2.15;0.82;;;;;;;;;;5014515;28;20033;-72
2022/07/26 12:32:00;;;;;;;0.88;0.60;;;;;;;;;;5014548;28;20030;-72
2022/07/26 12:34:26;;;;;;;2.70;0.68;;;;;;;;;;5014462;28;20069;-71
2022/07/26 12:36:52;;;;;;;1.38;0.60;;;;;;;;;;4996799;28;20440;-72
2022/07/26 12:39:20;;;;;;;1.08;0.60;;;;;;;;;;5014305;28;20034;-71
2022/07/26 12:41:49;;;;;;;2.03;0.68;;;;;;;;;;5014293;28;20020;-72
2022/07/26 12:44:15;;;;;;;1.10;0.63;;;;;;;;;;5014338;28;20040;-72
2022/07/26 12:46:45;;;;;;;4.13;0.93;;;;;;;;;;5014219;28;20050;-71
2022/07/26 12:49:11;;;;;;;2.22;0.95;;;;;;;;;;5014736;28;20029;-72
2022/07/26 12:51:37;;;;;;;6.15;0.88;;;;;;;;;;5014119;28;20026;-72
2022/07/26 12:54:05;;;;;;;1.85;0.80;;;;;;;;;;5014127;28;20036;-73
2022/07/26 12:56:31;;;;;;;2.20;0.60;;;;;;;;;;5014592;28;20026;-71
2022/07/26 12:59:00;;;;;;;2.13;0.70;;;;;;;;;;5014487;28;20030;-71
2022/07/26 13:01:27;;;;;;;15.10;1.77;;;;;;;;;;5014457;28;20018;-71
2022/07/26 13:03:54;;;;;;;6.47;0.98;;;;;;;;;;5014273;28;20042;-72
2022/07/26 13:06:20;;;;;;;6.60;0.82;;;;;;;;;;5013896;28;20045;-71
2022/07/26 13:08:46;;;;;;;1.17;0.73;;;;;;;;;;5013374;28;20401;-71
2022/07/26 13:11:12;;;;;;;4.03;0.82;;;;;;;;;;4996245;28;20029;-71
2022/07/26 13:13:38;;;;;;;0.52;0.40;;;;;;;;;;5013772;28;20030;-72
2022/07/26 13:16:04;;;;;;;2.42;0.60;;;;;;;;;;5013750;28;20100;-72
2022/07/26 13:18:30;;;;;;;3.55;0.90;;;;;;;;;;5014200;28;20026;-71
2022/07/26 13:20:56;;;;;;;1.20;0.55;;;;;;;;;;5013677;28;20033;-71
2022/07/26 13:23:22;;;;;;;3.83;0.90;;;;;;;;;;5013914;28;20022;-72
2022/07/26 13:25:48;;;;;;;2.00;0.65;;;;;;;;;;5013622;28;20026;-72
2022/07/26 13:28:15;;;;;;;1.20;0.57;;;;;;;;;;5013861;28;20021;-71
2022/07/26 13:30:42;;;;;;;2.70;0.80;;;;;;;;;;5013605;28;20045;-72
2022/07/26 13:33:08;;;;;;;1.48;0.88;;;;;;;;;;5014081;28;20029;-71
2022/07/26 13:35:35;;;;;;;2.28;0.68;;;;;;;;;;5013801;28;20373;-71
2022/07/26 13:38:01;;;;;;;0.80;0.50;;;;;;;;;;5013425;28;20018;-72
2022/07/26 13:40:27;;;;;;;2.40;0.77;;;;;;;;;;5013946;28;20064;-72
2022/07/26 13:42:53;;;;;;;1.75;0.70;;;;;;;;;;5013726;28;20028;-72
2022/07/26 13:45:19;;;;;;;2.80;1.00;;;;;;;;;;5013700;28;20161;-72
2022/07/26 13:47:46;;;;;;;5.22;1.02;;;;;;;;;;5013401;28;20103;-72
2022/07/26 13:50:12;;;;;;;1.75;0.98;;;;;;;;;;5013393;28;20026;-73
2022/07/26 13:52:39;;;;;;;3.60;1.00;;;;;;;;;;5013634;28;20028;-72
2022/07/26 13:55:05;;;;;;;2.58;0.70;;;;;;;;;;5013287;28;20030;-72
2022/07/26 13:57:31;;;;;;;2.35;0.82;;;;;;;;;;5013313;28;20064;-71
2022/07/26 13:59:57;;;;;;;2.22;0.65;;;;;;;;;;5013097;28;20026;-71
2022/07/26 14:02:23;;;;;;;2.70;0.80;;;;;;;;;;5013791;28;20441;-71
2022/07/26 14:04:49;;;;;;;0.95;0.70;;;;;;;;;;5013326;28;20049;-71
2022/07/26 14:07:15;;;;;;;2.50;1.27;;;;;;;;;;5013494;28;20097;-72
2022/07/26 14:09:41;;;;;;;1.33;0.68;;;;;;;;;;5013137;28;20400;-71
2022/07/26 14:12:08;;;;;;;1.67;0.80;;;;;;;;;;5013177;28;20033;-72
2022/07/26 14:14:34;;;;;;;3.30;0.90;;;;;;;;;;5013153;28;20030;-72
2022/07/26 14:17:00;;;;;;;2.92;0.80;;;;;;;;;;5013162;28;20132;-71
2022/07/26 14:19:26;;;;;;;0.60;0.60;;;;;;;;;;5013791;28;20026;-71
2022/07/26 14:21:52;;;;;;;4.00;0.80;;;;;;;;;;5016973;28;20030;-73
2022/07/26 14:24:18;;;;;;;1.67;1.05;;;;;;;;;;5016891;28;20025;-73
2022/07/26 14:26:44;;;;;;;3.35;0.80;;;;;;;;;;5017153;28;20026;-72
2022/07/26 14:29:10;;;;;;;5.00;1.10;;;;;;;;;;5016793;28;20477;-72
2022/07/26 14:31:36;;;;;;;2.58;0.80;;;;;;;;;;5016738;28;20030;-71
2022/07/26 14:34:02;;;;;;;5.15;0.93;;;;;;;;;;5017251;28;20030;-71
2022/07/26 14:36:28;;;;;;;2.08;0.70;;;;;;;;;;5016951;28;20034;-71
2022/07/26 14:38:54;;;;;;;3.28;0.90;;;;;;;;;;5016842;28;20101;-72
2022/07/26 14:41:21;;;;;;;2.42;0.88;;;;;;;;;;5016895;28;20021;-71
2022/07/26 14:43:47;;;;;;;2.85;0.93;;;;;;;;;;5016589;28;20022;-72
2022/07/26 14:46:13;;;;;;;1.85;0.77;;;;;;;;;;5016535;28;20029;-72
2022/07/26 14:48:39;;;;;;;4.88;1.40;;;;;;;;;;5016473;28;20097;-71